Time;durP1;ratioP1;P1;durP2;ratioP2;P2;SDS_P1;SDS_P2;PMS_P1;PMS_P2;Temp;Humidity;BMP_temperature;BMP_pressure;BME280_temperature;BME280_humidity;BME280_pressure;Samples;Min_cycle;Max_cycle;Signal;HPM_P1;HPM_P2
2022/12/01 00:01:01;;;;;;;21.85;16.52;;;5.40;99.90;;;;;;5026100;28;20041;-77
2022/12/01 00:03:30;;;;;;;26.55;17.85;;;5.30;99.90;;;;;;5003073;28;20046;-74
2022/12/01 00:06:01;;;;;;;22.15;16.20;;;5.30;99.90;;;;;;5017016;28;20116;-76
2022/12/01 00:08:30;;;;;;;21.85;16.35;;;5.30;99.90;;;;;;5015764;28;20049;-74
2022/12/01 00:11:03;;;;;;;22.40;16.67;;;5.20;99.90;;;;;;5029447;28;20030;-75
2022/12/01 00:13:30;;;;;;;21.92;16.95;;;5.20;99.90;;;;;;5002614;28;20390;-77
2022/12/01 00:15:57;;;;;;;21.60;16.50;;;5.20;99.90;;;;;;5026823;28;20046;-75
2022/12/01 00:18:26;;;;;;;20.95;15.43;;;5.20;99.90;;;;;;5002353;28;20042;-79
2022/12/01 00:20:54;;;;;;;18.48;13.93;;;5.20;99.90;;;;;;5002034;28;20076;-78
2022/12/01 00:23:23;;;;;;;21.20;15.57;;;5.20;99.90;;;;;;5004378;28;20053;-75
2022/12/01 00:25:50;;;;;;;19.17;15.05;;;5.10;99.90;;;;;;5004196;28;20116;-76
2022/12/01 00:28:18;;;;;;;21.77;16.27;;;5.10;99.90;;;;;;5005256;28;20132;-75
2022/12/01 00:30:45;;;;;;;20.70;15.98;;;5.10;99.90;;;;;;5006346;28;20061;-77
2022/12/01 00:33:12;;;;;;;20.90;14.98;;;5.10;99.90;;;;;;5004883;28;20044;-78
2022/12/01 00:35:41;;;;;;;19.27;15.85;;;5.10;99.90;;;;;;5003707;28;20637;-76
2022/12/01 00:38:08;;;;;;;21.90;16.10;;;5.10;99.90;;;;;;5005890;28;20050;-76
2022/12/01 00:40:36;;;;;;;19.48;14.93;;;5.20;99.90;;;;;;5005328;28;20042;-76
2022/12/01 00:43:03;;;;;;;21.35;15.63;;;5.20;99.90;;;;;;5004895;28;20045;-77
2022/12/01 00:45:30;;;;;;;24.85;16.88;;;5.20;99.90;;;;;;5030965;28;20052;-76
2022/12/01 00:47:58;;;;;;;25.67;17.75;;;5.20;99.90;;;;;;5023322;28;20095;-77
2022/12/01 00:50:25;;;;;;;23.63;16.35;;;5.20;99.90;;;;;;5005234;28;20050;-78
2022/12/01 00:52:57;;;;;;;24.00;16.50;;;5.20;99.90;;;;;;5004262;28;20057;-77
2022/12/01 00:55:25;;;;;;;22.25;16.40;;;5.20;99.90;;;;;;5005767;28;20052;-76
2022/12/01 00:57:52;;;;;;;21.08;15.77;;;5.20;99.90;;;;;;5004592;28;20053;-79
2022/12/01 01:00:20;;;;;;;20.85;14.25;;;5.30;99.90;;;;;;5024876;28;20038;-77
2022/12/01 01:02:48;;;;;;;21.45;14.43;;;5.20;99.90;;;;;;5028815;28;20053;-75
2022/12/01 01:05:16;;;;;;;21.55;15.88;;;5.20;99.90;;;;;;5022168;28;20134;-78
2022/12/01 01:07:43;;;;;;;23.02;16.35;;;5.20;99.90;;;;;;5009243;28;20042;-79
2022/12/01 01:10:13;;;;;;;23.85;17.23;;;5.10;99.90;;;;;;5007530;28;20053;-79
2022/12/01 01:12:40;;;;;;;25.17;16.65;;;5.10;99.90;;;;;;5004532;28;20054;-79
2022/12/01 01:15:09;;;;;;;22.85;15.95;;;5.10;99.90;;;;;;5020011;28;20053;-79
2022/12/01 01:17:36;;;;;;;23.23;16.52;;;5.20;99.90;;;;;;5004591;28;20501;-79
2022/12/01 01:20:05;;;;;;;23.20;16.30;;;5.20;99.90;;;;;;5029455;28;20137;-78
2022/12/01 01:22:34;;;;;;;22.60;15.35;;;5.20;99.90;;;;;;5004219;28;20045;-78
2022/12/01 01:25:02;;;;;;;20.85;15.00;;;5.30;99.90;;;;;;5029640;28;20516;-78
2022/12/01 01:27:30;;;;;;;18.02;13.27;;;5.30;99.90;;;;;;5003633;28;20485;-78
2022/12/01 01:29:58;;;;;;;19.17;13.63;;;5.20;99.90;;;;;;5004683;28;20675;-78
2022/12/01 01:32:25;;;;;;;21.92;13.95;;;5.20;99.90;;;;;;5003956;28;20406;-78
2022/12/01 01:34:52;;;;;;;17.45;13.52;;;5.20;99.90;;;;;;5028383;28;20057;-80
2022/12/01 01:37:20;;;;;;;17.58;13.85;;;5.30;99.90;;;;;;5005164;28;20505;-79
2022/12/01 01:39:48;;;;;;;19.35;14.82;;;5.20;99.90;;;;;;5004503;28;20046;-77
2022/12/01 01:42:18;;;;;;;22.77;16.55;;;5.30;99.90;;;;;;5021166;28;20052;-77
2022/12/01 01:44:53;;;;;;;26.08;18.15;;;5.30;99.90;;;;;;5006186;28;20038;-77
2022/12/01 01:47:25;;;;;;;26.65;18.40;;;5.30;99.90;;;;;;5014714;28;20045;-79
2022/12/01 01:49:54;;;;;;;26.98;19.52;;;5.30;99.90;;;;;;5015346;28;20052;-76
2022/12/01 01:52:23;;;;;;;29.05;19.90;;;5.30;99.90;;;;;;5007361;28;20053;-77
2022/12/01 01:54:53;;;;;;;30.38;20.58;;;5.30;99.90;;;;;;5042714;28;20049;-78
2022/12/01 01:57:26;;;;;;;30.27;20.55;;;5.30;99.90;;;;;;5050259;28;20045;-75
2022/12/01 01:59:59;;;;;;;26.00;19.95;;;5.30;99.90;;;;;;5025813;28;20046;-75
2022/12/01 02:02:28;;;;;;;24.95;19.00;;;5.30;99.90;;;;;;5008773;28;20045;-79
2022/12/01 02:05:01;;;;;;;24.02;19.23;;;5.20;99.90;;;;;;5011478;28;20056;-77
2022/12/01 02:07:29;;;;;;;25.60;18.80;;;5.20;99.90;;;;;;5032881;28;20056;-78
2022/12/01 02:09:57;;;;;;;27.77;20.73;;;5.20;99.90;;;;;;5012821;28;20042;-75
2022/12/01 02:12:39;;;;;;;26.45;19.67;;;5.20;99.90;;;;;;5006415;28;20076;-76
2022/12/01 02:15:26;;;;;;;25.20;19.80;;;5.20;99.90;;;;;;5019975;28;20099;-77
2022/12/01 02:18:05;;;;;;;27.17;20.13;;;5.20;99.90;;;;;;5002812;28;20042;-78
2022/12/01 02:20:50;;;;;;;24.70;19.55;;;5.20;99.90;;;;;;5002815;28;20068;-76
2022/12/01 02:23:53;;;;;;;24.88;19.77;;;5.20;99.90;;;;;;5003072;28;20480;-77
2022/12/01 02:26:35;;;;;;;26.50;20.27;;;5.20;99.90;;;;;;5000654;28;20064;-77
2022/12/01 02:29:38;;;;;;;24.55;19.35;;;5.30;99.90;;;;;;5006674;28;20046;-78
2022/12/01 02:32:14;;;;;;;23.73;18.73;;;5.30;99.90;;;;;;4976999;28;20049;-77
2022/12/01 02:34:47;;;;;;;25.45;20.40;;;5.30;99.90;;;;;;5027391;28;20524;-76
2022/12/01 02:37:23;;;;;;;25.35;19.63;;;5.30;99.90;;;;;;5018748;28;20046;-78
2022/12/01 02:39:56;;;;;;;27.85;20.70;;;5.30;99.90;;;;;;5027826;28;20413;-73
2022/12/01 02:42:53;;;;;;;24.92;19.98;;;5.30;99.90;;;;;;5001382;28;20053;-75
2022/12/01 02:45:33;;;;;;;28.05;21.52;;;5.30;99.90;;;;;;5022678;28;20045;-74
2022/12/01 02:48:04;;;;;;;33.40;23.95;;;5.30;99.90;;;;;;5020788;28;20243;-78
2022/12/01 02:50:35;;;;;;;29.75;22.58;;;5.30;99.90;;;;;;5001822;28;20508;-72
2022/12/01 02:53:05;;;;;;;38.75;27.23;;;5.40;99.90;;;;;;5003766;28;20395;-81
2022/12/01 02:55:33;;;;;;;26.85;19.83;;;5.40;99.90;;;;;;5026430;28;20046;-79
2022/12/01 02:58:00;;;;;;;26.38;20.17;;;5.40;99.90;;;;;;5027271;28;20045;-77
2022/12/01 03:00:30;;;;;;;24.50;19.73;;;5.40;99.90;;;;;;5002912;28;20045;-80
2022/12/01 03:03:20;;;;;;;24.65;19.05;;;5.40;99.90;;;;;;5026152;28;20045;-76
2022/12/01 03:05:53;;;;;;;25.08;20.00;;;5.40;99.90;;;;;;5026296;28;20046;-77
2022/12/01 03:08:27;;;;;;;25.38;19.58;;;5.40;99.90;;;;;;5018716;28;20052;-75
2022/12/01 03:10:56;;;;;;;25.42;19.00;;;5.40;99.90;;;;;;5010385;28;20025;-76
2022/12/01 03:13:35;;;;;;;26.85;20.48;;;5.40;99.90;;;;;;5023241;28;20049;-76
2022/12/01 03:16:09;;;;;;;25.10;19.95;;;5.40;99.90;;;;;;5036757;28;20033;-78
2022/12/01 03:18:40;;;;;;;26.25;20.38;;;5.40;99.90;;;;;;5002119;28;20050;-76
2022/12/01 03:21:13;;;;;;;26.00;20.48;;;5.40;99.90;;;;;;5002684;28;20057;-77
2022/12/01 03:23:45;;;;;;;26.45;20.30;;;5.40;99.90;;;;;;5007254;28;20057;-78
2022/12/01 03:26:18;;;;;;;23.20;19.27;;;5.40;99.90;;;;;;5028334;28;20076;-79
2022/12/01 03:28:51;;;;;;;25.50;20.20;;;5.40;99.90;;;;;;5002398;28;20131;-77
2022/12/01 03:31:24;;;;;;;29.13;21.08;;;5.40;99.90;;;;;;5027102;28;20473;-77
2022/12/01 03:33:57;;;;;;;26.83;20.20;;;5.40;99.90;;;;;;5038625;28;20054;-79
2022/12/01 03:36:30;;;;;;;26.17;20.23;;;5.40;99.90;;;;;;5030054;28;20042;-76
2022/12/01 03:39:03;;;;;;;25.45;19.95;;;5.40;99.90;;;;;;5028045;28;20550;-74
2022/12/01 03:41:36;;;;;;;23.73;18.75;;;5.40;99.90;;;;;;5017385;28;20164;-76
2022/12/01 03:44:08;;;;;;;24.25;18.50;;;5.40;99.90;;;;;;5002957;28;20138;-76
2022/12/01 03:46:44;;;;;;;22.70;17.75;;;5.50;99.90;;;;;;5021320;28;20045;-76
2022/12/01 03:49:15;;;;;;;24.70;17.95;;;5.50;99.90;;;;;;5005999;28;20073;-76
2022/12/01 03:51:49;;;;;;;22.30;18.17;;;5.50;99.90;;;;;;5002410;28;20111;-75
2022/12/01 03:54:24;;;;;;;23.30;18.30;;;5.50;99.90;;;;;;5008733;28;20049;-76
2022/12/01 03:56:56;;;;;;;24.20;18.70;;;5.50;99.90;;;;;;5044633;28;20030;-75
2022/12/01 03:59:25;;;;;;;25.20;18.52;;;5.50;99.90;;;;;;5047406;28;20064;-76
2022/12/01 04:01:53;;;;;;;23.45;18.13;;;5.50;99.90;;;;;;5026827;28;20037;-78
2022/12/01 04:04:22;;;;;;;22.42;17.85;;;5.50;99.90;;;;;;5019277;28;20045;-76
2022/12/01 04:06:50;;;;;;;21.20;16.38;;;5.50;99.90;;;;;;5006676;28;20050;-76
2022/12/01 04:09:17;;;;;;;25.77;18.10;;;5.40;99.90;;;;;;5023168;28;20049;-75
2022/12/01 04:14:32;;;;;;;24.23;17.77;;;5.30;99.90;;;;;;5005572;28;20133;-77
2022/12/01 04:16:59;;;;;;;22.85;17.25;;;5.30;99.90;;;;;;5020296;28;20064;-74
2022/12/01 04:19:28;;;;;;;23.08;17.80;;;5.20;99.90;;;;;;5023015;28;20453;-75
2022/12/01 04:21:56;;;;;;;21.98;17.02;;;5.20;99.90;;;;;;5042976;28;20092;-78
2022/12/01 04:24:23;;;;;;;21.08;17.13;;;5.20;99.90;;;;;;5007500;28;20045;-73
2022/12/01 04:26:50;;;;;;;23.98;17.80;;;5.20;99.90;;;;;;5021142;28;20485;-75
2022/12/01 04:29:18;;;;;;;21.15;16.45;;;5.20;99.90;;;;;;5006330;28;20049;-74
2022/12/01 04:31:46;;;;;;;19.52;16.10;;;5.20;99.90;;;;;;5004991;28;20508;-74
2022/12/01 04:34:13;;;;;;;22.55;15.82;;;5.30;99.90;;;;;;5005763;28;20072;-74
2022/12/01 04:36:42;;;;;;;19.25;15.82;;;5.30;99.90;;;;;;5028006;28;20521;-77
2022/12/01 04:39:09;;;;;;;20.30;15.90;;;5.40;99.90;;;;;;5004910;28;20046;-75
2022/12/01 04:41:37;;;;;;;20.08;15.68;;;5.40;99.90;;;;;;5004623;28;20053;-74
2022/12/01 04:44:05;;;;;;;20.27;15.23;;;5.40;99.90;;;;;;5004559;28;20053;-74
2022/12/01 04:46:33;;;;;;;23.40;16.30;;;5.40;99.90;;;;;;5028778;28;20037;-75
2022/12/01 04:49:04;;;;;;;18.23;14.27;;;5.30;99.90;;;;;;5021326;28;20547;-75
2022/12/01 04:51:31;;;;;;;19.80;15.55;;;5.20;99.90;;;;;;5000625;28;20481;-75
2022/12/01 04:54:01;;;;;;;19.67;15.85;;;5.10;99.90;;;;;;5004482;28;20149;-76
2022/12/01 04:56:29;;;;;;;20.73;16.10;;;5.10;99.90;;;;;;5004986;28;20136;-75
2022/12/01 04:58:57;;;;;;;20.10;16.33;;;4.90;99.90;;;;;;5005323;28;20076;-76
2022/12/01 05:01:25;;;;;;;20.65;16.98;;;4.90;99.90;;;;;;5021585;28;20563;-76
2022/12/01 05:03:53;;;;;;;19.58;15.63;;;4.90;99.90;;;;;;5028429;28;20141;-77
2022/12/01 05:06:22;;;;;;;20.27;16.90;;;4.80;99.90;;;;;;5003277;28;20050;-75
2022/12/01 05:08:51;;;;;;;20.85;15.95;;;4.80;99.90;;;;;;5002949;28;20476;-75
2022/12/01 05:11:20;;;;;;;21.52;16.85;;;4.80;99.90;;;;;;5028825;28;20107;-76
2022/12/01 05:13:48;;;;;;;22.90;17.15;;;4.80;99.90;;;;;;5004595;28;20536;-75
2022/12/01 05:16:19;;;;;;;18.55;14.77;;;4.90;99.90;;;;;;5020604;28;20042;-76
2022/12/01 05:18:49;;;;;;;22.83;16.55;;;4.90;99.90;;;;;;5028305;28;20515;-76
2022/12/01 05:21:16;;;;;;;19.88;15.15;;;5.00;99.90;;;;;;5021020;28;20488;-77
2022/12/01 05:23:44;;;;;;;20.73;15.85;;;4.90;99.90;;;;;;5005568;28;20520;-75
2022/12/01 05:26:12;;;;;;;21.35;15.82;;;4.90;99.90;;;;;;5003693;28;20057;-75
2022/12/01 05:28:40;;;;;;;19.13;15.15;;;4.90;99.90;;;;;;5004667;28;20127;-75
2022/12/01 05:31:08;;;;;;;16.50;14.20;;;4.90;99.90;;;;;;5028395;28;20050;-75
2022/12/01 05:33:35;;;;;;;21.13;16.67;;;4.90;99.90;;;;;;5002944;28;20050;-76
2022/12/01 05:36:03;;;;;;;20.42;16.02;;;5.00;99.90;;;;;;5020073;28;20060;-75
2022/12/01 05:38:30;;;;;;;17.80;14.75;;;4.90;99.90;;;;;;5004432;28;20052;-74
2022/12/01 05:40:58;;;;;;;22.73;16.63;;;4.90;99.90;;;;;;5021106;28;20057;-76
2022/12/01 05:43:28;;;;;;;18.17;14.80;;;4.80;99.90;;;;;;5050923;28;20077;-75
2022/12/01 05:45:58;;;;;;;19.00;15.48;;;4.90;99.90;;;;;;5045457;28;20057;-76
2022/12/01 05:48:25;;;;;;;20.70;15.52;;;5.00;99.90;;;;;;5053704;28;20259;-76
2022/12/01 05:50:53;;;;;;;20.08;16.10;;;4.90;99.90;;;;;;5054051;28;20029;-77
2022/12/01 05:53:20;;;;;;;23.38;17.08;;;4.90;99.90;;;;;;5052224;28;20037;-76
2022/12/01 05:55:52;;;;;;;22.20;17.58;;;5.00;99.90;;;;;;5017074;28;20049;-73
2022/12/01 05:58:19;;;;;;;20.13;16.40;;;5.00;99.90;;;;;;5003589;28;20049;-73
2022/12/01 06:00:47;;;;;;;21.00;17.05;;;5.00;99.90;;;;;;5006360;28;20223;-76
2022/12/01 06:03:16;;;;;;;22.67;17.55;;;4.90;99.90;;;;;;5007850;28;20038;-75
2022/12/01 06:05:43;;;;;;;28.00;20.40;;;4.90;99.90;;;;;;5028757;28;20410;-74
2022/12/01 06:08:11;;;;;;;24.20;18.48;;;4.90;99.90;;;;;;5005457;28;20045;-76
2022/12/01 06:10:38;;;;;;;25.13;18.48;;;4.90;99.90;;;;;;5001973;28;20042;-73
2022/12/01 06:13:06;;;;;;;23.65;18.70;;;4.90;99.90;;;;;;5019937;28;20109;-75
2022/12/01 06:15:33;;;;;;;23.45;18.25;;;5.10;99.90;;;;;;5029199;28;20528;-76
2022/12/01 06:18:01;;;;;;;24.52;18.13;;;5.20;99.90;;;;;;5004148;28;20069;-75
2022/12/01 06:20:30;;;;;;;25.75;20.02;;;5.00;99.90;;;;;;5019572;28;20078;-74
2022/12/01 06:22:58;;;;;;;24.35;18.52;;;5.00;99.90;;;;;;5019215;28;20052;-75
2022/12/01 06:25:25;;;;;;;22.67;17.17;;;5.00;99.90;;;;;;5028051;28;20046;-75
2022/12/01 06:28:04;;;;;;;30.35;21.40;;;5.10;99.90;;;;;;5003270;28;20048;-73
2022/12/01 06:30:31;;;;;;;26.40;19.13;;;5.10;99.90;;;;;;5020494;28;20056;-74
2022/12/01 06:32:59;;;;;;;16.48;12.20;;;5.20;99.90;;;;;;5043036;28;20034;-78
2022/12/01 06:35:26;;;;;;;22.33;16.27;;;5.20;99.90;;;;;;5053189;28;20065;-75
2022/12/01 06:37:55;;;;;;;21.45;16.13;;;5.20;99.90;;;;;;5010061;28;20088;-77
2022/12/01 06:40:22;;;;;;;21.27;16.10;;;5.30;99.90;;;;;;5021864;28;20076;-76
2022/12/01 06:42:50;;;;;;;21.88;15.93;;;5.40;99.90;;;;;;5030765;28;20061;-75
2022/12/01 06:45:17;;;;;;;24.75;17.33;;;5.50;99.90;;;;;;5004793;28;20078;-74
2022/12/01 06:47:46;;;;;;;24.35;17.10;;;5.40;99.90;;;;;;5005835;28;20429;-75
2022/12/01 06:50:14;;;;;;;24.05;17.17;;;5.40;99.90;;;;;;5021932;28;20038;-76
2022/12/01 06:52:41;;;;;;;26.10;17.45;;;5.40;99.90;;;;;;5002586;28;20136;-72
2022/12/01 06:55:11;;;;;;;24.63;17.80;;;5.50;99.90;;;;;;5023150;28;20034;-76
2022/12/01 06:57:39;;;;;;;19.00;14.20;;;5.50;99.90;;;;;;5012986;28;20076;-77
2022/12/01 07:00:08;;;;;;;19.02;14.25;;;5.60;99.90;;;;;;5008741;28;20050;-75
2022/12/01 07:02:37;;;;;;;28.08;18.38;;;5.60;99.90;;;;;;5019141;28;20964;-75
2022/12/01 07:05:05;;;;;;;23.48;16.92;;;5.70;99.90;;;;;;5018876;28;20502;-76
2022/12/01 07:07:35;;;;;;;20.33;15.13;;;5.70;99.90;;;;;;5001852;28;20042;-75
2022/12/01 07:10:03;;;;;;;19.70;14.40;;;5.70;99.90;;;;;;5017758;28;20046;-75
2022/12/01 07:12:32;;;;;;;25.52;18.50;;;5.70;99.90;;;;;;5003240;28;20049;-76
2022/12/01 07:15:00;;;;;;;23.25;17.77;;;5.70;99.90;;;;;;5025127;28;20042;-77
2022/12/01 07:17:28;;;;;;;22.45;17.83;;;5.70;99.90;;;;;;5019935;28;20075;-73
2022/12/01 07:19:55;;;;;;;29.00;19.00;;;5.60;99.90;;;;;;5019665;28;20042;-76
2022/12/01 07:22:23;;;;;;;31.63;21.80;;;5.50;99.90;;;;;;5016053;28;20061;-76
2022/12/01 07:24:51;;;;;;;32.97;21.80;;;5.60;99.90;;;;;;5032482;28;20053;-74
2022/12/01 07:27:18;;;;;;;28.85;19.15;;;5.50;99.90;;;;;;5002200;28;20129;-75
2022/12/01 07:29:47;;;;;;;27.45;18.27;;;5.50;99.90;;;;;;5020192;28;20073;-73
2022/12/01 07:32:15;;;;;;;26.95;17.52;;;5.50;99.90;;;;;;5018038;28;20089;-76
2022/12/01 07:34:43;;;;;;;24.75;16.63;;;5.50;99.90;;;;;;5002325;28;20064;-75
2022/12/01 07:37:10;;;;;;;20.77;16.10;;;5.60;99.90;;;;;;5033740;28;20071;-75
2022/12/01 07:39:38;;;;;;;30.15;20.25;;;5.60;99.90;;;;;;5023389;28;20895;-77
2022/12/01 07:42:06;;;;;;;23.35;17.48;;;5.60;99.90;;;;;;5040113;28;20113;-75
2022/12/01 07:44:33;;;;;;;26.35;18.73;;;5.70;99.90;;;;;;5022945;28;20054;-76
2022/12/01 07:47:02;;;;;;;23.10;17.63;;;5.60;99.90;;;;;;5047290;28;20087;-75
2022/12/01 07:49:29;;;;;;;28.48;19.95;;;5.50;99.90;;;;;;5020421;28;20073;-77
2022/12/01 07:51:57;;;;;;;33.67;21.38;;;5.50;99.90;;;;;;5022625;28;20070;-77
2022/12/01 07:54:25;;;;;;;32.60;22.05;;;5.60;99.90;;;;;;5042463;28;20125;-77
2022/12/01 07:56:56;;;;;;;37.10;24.35;;;5.70;99.90;;;;;;5050325;28;20046;-76
2022/12/01 07:59:23;;;;;;;31.45;21.05;;;5.40;99.90;;;;;;5015746;28;20096;-76
2022/12/01 08:01:50;;;;;;;31.50;22.15;;;5.30;99.90;;;;;;5003306;28;20045;-75
2022/12/01 08:04:21;;;;;;;28.02;19.38;;;5.40;99.90;;;;;;5009624;28;20134;-74
2022/12/01 08:06:48;;;;;;;26.50;18.48;;;5.30;99.90;;;;;;5007708;28;20045;-75
2022/12/01 08:09:17;;;;;;;24.17;18.20;;;5.40;99.90;;;;;;5027977;28;20046;-75
2022/12/01 08:11:45;;;;;;;23.13;15.30;;;5.40;99.90;;;;;;5026956;28;20050;-75
2022/12/01 08:14:12;;;;;;;29.40;18.92;;;5.50;99.90;;;;;;5002649;28;20042;-75
2022/12/01 08:16:43;;;;;;;25.70;16.92;;;5.40;99.90;;;;;;5002576;28;20050;-76
2022/12/01 08:19:10;;;;;;;20.80;14.65;;;5.40;99.90;;;;;;5029041;28;20137;-76
2022/12/01 08:21:39;;;;;;;24.55;18.02;;;5.20;99.90;;;;;;5002096;28;20678;-75
2022/12/01 08:24:08;;;;;;;25.00;17.13;;;5.10;99.90;;;;;;5000804;28;20046;-77
2022/12/01 08:26:35;;;;;;;22.58;16.80;;;5.20;99.90;;;;;;5018771;28;20054;-76
2022/12/01 08:29:02;;;;;;;25.05;17.27;;;5.20;99.90;;;;;;5000895;28;20054;-74
2022/12/01 08:31:34;;;;;;;24.20;15.57;;;5.20;99.90;;;;;;5016395;28;20573;-76
2022/12/01 08:34:05;;;;;;;20.33;15.35;;;5.30;99.90;;;;;;5000471;28;20042;-75
2022/12/01 08:36:33;;;;;;;23.80;17.42;;;5.30;99.90;;;;;;5021693;28;20045;-76
2022/12/01 08:39:01;;;;;;;21.02;16.30;;;5.20;99.90;;;;;;5002848;28;20050;-77
2022/12/01 08:41:30;;;;;;;25.88;18.00;;;5.10;99.90;;;;;;5018562;28;20078;-74
2022/12/01 08:43:58;;;;;;;21.25;14.55;;;5.20;99.90;;;;;;5020081;28;20038;-74
2022/12/01 08:46:25;;;;;;;22.40;16.02;;;5.40;99.90;;;;;;5025924;28;20045;-75
2022/12/01 08:48:56;;;;;;;25.13;17.15;;;5.40;99.90;;;;;;5023507;28;20049;-74
2022/12/01 08:51:23;;;;;;;19.83;14.50;;;5.50;99.90;;;;;;5023018;28;20048;-76
2022/12/01 08:53:51;;;;;;;20.75;15.32;;;5.60;99.90;;;;;;5005035;28;20049;-75
2022/12/01 08:56:22;;;;;;;21.83;15.73;;;5.50;99.90;;;;;;5023992;28;20042;-75
2022/12/01 08:58:50;;;;;;;25.80;16.17;;;5.60;99.90;;;;;;5021601;28;20044;-76
2022/12/01 09:01:18;;;;;;;20.88;14.98;;;5.60;99.90;;;;;;5004496;28;20045;-77
2022/12/01 09:03:46;;;;;;;25.33;17.33;;;5.60;99.90;;;;;;5023273;28;20544;-77
2022/12/01 09:06:15;;;;;;;27.65;17.02;;;5.50;99.90;;;;;;5023638;28;20056;-75
2022/12/01 09:08:44;;;;;;;22.10;15.30;;;5.50;99.90;;;;;;5021427;28;20052;-75
2022/12/01 09:11:13;;;;;;;20.50;15.18;;;5.40;99.90;;;;;;5021017;28;20045;-75
2022/12/01 09:13:43;;;;;;;18.35;12.82;;;5.30;99.90;;;;;;5021679;28;20072;-76
2022/12/01 09:16:13;;;;;;;20.63;14.23;;;5.40;99.90;;;;;;5020337;28;20046;-74
2022/12/01 09:18:40;;;;;;;20.77;13.15;;;5.50;99.90;;;;;;5022352;28;20112;-76
2022/12/01 09:21:12;;;;;;;16.60;12.70;;;5.60;99.90;;;;;;5023231;28;20041;-75
2022/12/01 09:23:40;;;;;;;19.02;12.98;;;5.50;99.90;;;;;;5022422;28;20053;-76
2022/12/01 09:26:09;;;;;;;19.88;14.70;;;5.50;99.90;;;;;;5039554;28;20058;-75
2022/12/01 09:28:36;;;;;;;24.13;16.75;;;5.60;99.90;;;;;;5009606;28;20037;-75
2022/12/01 09:31:07;;;;;;;17.05;12.43;;;5.70;99.90;;;;;;5004629;28;20666;-77
2022/12/01 09:33:35;;;;;;;21.75;14.60;;;5.70;99.90;;;;;;5022452;28;20065;-77
2022/12/01 09:36:03;;;;;;;21.85;14.68;;;5.70;99.90;;;;;;5022686;28;20045;-78
2022/12/01 09:38:31;;;;;;;24.30;16.23;;;5.80;99.90;;;;;;5007076;28;20099;-76
2022/12/01 09:41:02;;;;;;;21.60;15.15;;;6.00;99.90;;;;;;5021540;28;20053;-76
2022/12/01 09:43:39;;;;;;;17.90;12.98;;;6.10;99.90;;;;;;5007558;28;20676;-77
2022/12/01 09:46:13;;;;;;;28.55;17.55;;;6.30;99.90;;;;;;5021863;28;20597;-76
2022/12/01 09:48:43;;;;;;;21.55;15.55;;;6.30;99.90;;;;;;5024579;28;20042;-73
2022/12/01 09:51:14;;;;;;;24.73;17.45;;;6.10;99.90;;;;;;5021559;28;20512;-74
2022/12/01 09:53:43;;;;;;;22.23;15.93;;;6.00;99.90;;;;;;5039898;28;20062;-77
2022/12/01 09:56:21;;;;;;;23.45;17.23;;;6.10;99.90;;;;;;5045701;28;20098;-75
2022/12/01 09:58:51;;;;;;;17.65;10.88;;;6.20;99.90;;;;;;5025934;28;20045;-77
2022/12/01 10:01:24;;;;;;;17.30;11.35;;;6.10;99.90;;;;;;5021726;28;20049;-77
2022/12/01 10:03:57;;;;;;;21.45;15.48;;;6.30;99.90;;;;;;5021856;28;20042;-79
2022/12/01 10:06:32;;;;;;;23.25;15.43;;;6.30;99.90;;;;;;5023297;28;20049;-77
2022/12/01 10:09:08;;;;;;;20.30;15.07;;;6.10;99.90;;;;;;5022072;28;20037;-76
2022/12/01 10:11:39;;;;;;;20.92;11.68;;;6.20;99.90;;;;;;5020195;28;20033;-75
2022/12/01 10:14:12;;;;;;;21.25;12.73;;;6.50;99.90;;;;;;5021555;28;20038;-77
2022/12/01 10:16:48;;;;;;;25.70;15.45;;;6.60;99.90;;;;;;5020270;28;20037;-77
2022/12/01 10:19:23;;;;;;;14.82;10.13;;;6.50;99.90;;;;;;5021319;28;20038;-78
2022/12/01 10:22:17;;;;;;;12.27;9.20;;;6.40;99.90;;;;;;5020598;28;20121;-78
2022/12/01 10:24:54;;;;;;;19.90;11.50;;;6.30;99.90;;;;;;5025881;28;20037;-77
2022/12/01 10:27:43;;;;;;;25.63;13.00;;;6.30;99.90;;;;;;5021235;28;20084;-77
2022/12/01 10:30:15;;;;;;;19.75;11.98;;;6.40;99.90;;;;;;5023810;28;20045;-75
2022/12/01 10:32:52;;;;;;;14.23;8.20;;;6.40;99.90;;;;;;5020612;28;20045;-79
2022/12/01 10:35:22;;;;;;;25.17;14.55;;;6.20;99.90;;;;;;5021489;28;20069;-76
2022/12/01 10:37:56;;;;;;;19.50;11.43;;;6.10;99.90;;;;;;5018916;28;20068;-76
2022/12/01 10:40:24;;;;;;;22.25;12.70;;;6.10;99.90;;;;;;5021015;28;20046;-78
2022/12/01 10:42:52;;;;;;;23.35;13.73;;;6.20;99.90;;;;;;5019478;28;20053;-77
2022/12/01 10:45:23;;;;;;;14.98;9.13;;;6.20;99.90;;;;;;5022909;28;20552;-74
2022/12/01 10:48:16;;;;;;;13.98;8.73;;;6.30;99.90;;;;;;5024726;28;20065;-75
2022/12/01 10:50:45;;;;;;;13.63;8.55;;;6.50;99.90;;;;;;5022224;28;20045;-76
2022/12/01 10:53:27;;;;;;;31.58;17.42;;;6.30;99.90;;;;;;5019098;28;20049;-77
2022/12/01 10:56:07;;;;;;;30.20;17.52;;;6.20;99.90;;;;;;5019241;28;20497;-79
2022/12/01 10:58:40;;;;;;;20.30;12.85;;;6.40;99.90;;;;;;5020108;28;20034;-78
2022/12/01 11:01:16;;;;;;;20.50;11.60;;;6.60;99.90;;;;;;5017405;28;20042;-78
2022/12/01 11:03:51;;;;;;;26.33;14.25;;;6.70;99.90;;;;;;5018456;28;20049;-78
2022/12/01 11:06:24;;;;;;;28.40;14.82;;;6.70;99.90;;;;;;5018622;28;20501;-76
2022/12/01 11:08:55;;;;;;;16.95;10.32;;;6.80;99.90;;;;;;5003956;28;20316;-77
2022/12/01 11:11:30;;;;;;;12.88;7.82;;;6.90;99.90;;;;;;5019867;28;20037;-74
2022/12/01 11:13:59;;;;;;;16.10;10.48;;;6.50;99.90;;;;;;5018725;28;20072;-79
2022/12/01 11:16:42;;;;;;;16.90;10.52;;;6.40;99.90;;;;;;5020017;28;20045;-74
2022/12/01 11:19:31;;;;;;;17.58;10.25;;;6.40;99.90;;;;;;5018459;28;20155;-74
2022/12/01 11:22:04;;;;;;;18.95;10.30;;;6.20;99.90;;;;;;5019415;28;20034;-77
2022/12/01 11:24:41;;;;;;;17.30;8.85;;;6.10;99.90;;;;;;5019547;28;20041;-77
2022/12/01 11:27:16;;;;;;;20.27;8.95;;;6.20;99.90;;;;;;5002368;28;20046;-75
2022/12/01 11:29:44;;;;;;;19.00;9.77;;;6.40;99.90;;;;;;5020017;28;20045;-78
2022/12/01 11:32:23;;;;;;;13.50;9.02;;;6.40;99.90;;;;;;5018744;28;20041;-78
2022/12/01 11:34:55;;;;;;;16.35;10.40;;;6.20;99.90;;;;;;5020307;28;20114;-76
2022/12/01 11:37:26;;;;;;;16.02;10.20;;;6.10;99.90;;;;;;5007363;28;20054;-76
2022/12/01 11:39:53;;;;;;;15.27;9.77;;;6.20;99.90;;;;;;5041811;28;20033;-76
2022/12/01 11:42:26;;;;;;;14.38;10.30;;;6.30;99.90;;;;;;5045746;28;20072;-77
2022/12/01 11:44:57;;;;;;;24.42;13.35;;;6.00;99.90;;;;;;5034535;28;20032;-78
2022/12/01 11:47:25;;;;;;;15.07;10.13;;;6.10;99.90;;;;;;5039823;28;20053;-74
2022/12/01 11:49:56;;;;;;;15.23;9.63;;;5.90;99.90;;;;;;5006187;28;20246;-77
2022/12/01 11:52:27;;;;;;;21.08;11.75;;;5.80;99.90;;;;;;5019027;28;20099;-77
2022/12/01 11:54:57;;;;;;;21.45;13.20;;;5.80;99.90;;;;;;5020151;28;20053;-77
2022/12/01 11:57:25;;;;;;;16.02;11.10;;;5.80;99.90;;;;;;5020586;28;20041;-79
2022/12/01 11:59:54;;;;;;;18.88;12.48;;;5.90;99.90;;;;;;5024042;28;20063;-76
2022/12/01 12:02:33;;;;;;;17.33;11.75;;;5.90;99.90;;;;;;5033848;28;20056;-76
2022/12/01 12:05:24;;;;;;;19.50;12.20;;;5.80;99.90;;;;;;5019537;28;20443;-76
2022/12/01 12:08:00;;;;;;;20.65;11.55;;;5.70;99.90;;;;;;4970378;28;20045;-74
2022/12/01 12:10:41;;;;;;;19.02;12.93;;;5.60;99.90;;;;;;5001268;28;20663;-75
2022/12/01 12:13:36;;;;;;;18.90;13.23;;;5.70;99.90;;;;;;5017298;28;20080;-77
2022/12/01 12:16:32;;;;;;;32.53;20.63;;;5.80;99.90;;;;;;5018356;28;20042;-77
2022/12/01 12:19:13;;;;;;;38.50;23.50;;;5.90;99.90;;;;;;5022894;28;20038;-77
2022/12/01 12:22:03;;;;;;;33.22;20.80;;;5.90;99.90;;;;;;5004676;28;20038;-78
2022/12/01 12:24:58;;;;;;;18.05;12.35;;;6.00;99.90;;;;;;5022882;28;20049;-78
2022/12/01 12:27:51;;;;;;;19.52;12.88;;;6.10;99.90;;;;;;5024095;28;20045;-76
2022/12/01 12:30:28;;;;;;;40.22;21.13;;;6.10;99.90;;;;;;5002777;23;20061;-75
2022/12/01 12:33:41;;;;;;;18.25;13.02;;;6.30;99.90;;;;;;5009395;28;20046;-78
2022/12/01 12:42:20;;;;;;;29.02;17.15;;;6.30;99.90;;;;;;5091683;23;20558;-78
2022/12/01 12:45:23;;;;;;;27.45;17.67;;;6.30;99.90;;;;;;4994844;28;20097;-76
2022/12/01 12:48:37;;;;;;;32.40;18.75;;;6.30;99.90;;;;;;4952083;29;20098;-79
2022/12/01 12:54:27;;;;;;;;;;;6.40;99.90;;;;;;5042911;28;20038;-79
2022/12/01 12:57:21;;;;;;;28.58;17.65;;;6.40;99.90;;;;;;5025023;28;19921;-76
2022/12/01 12:59:53;;;;;;;23.42;15.63;;;6.20;99.90;;;;;;5041408;28;20055;-76
2022/12/01 13:02:25;;;;;;;22.35;15.00;;;6.20;99.90;;;;;;5041915;28;20045;-75
2022/12/01 13:05:01;;;;;;;21.15;14.55;;;6.30;99.90;;;;;;5023985;28;20048;-79
2022/12/01 13:07:37;;;;;;;21.50;13.65;;;6.20;99.90;;;;;;5043745;28;20061;-77
2022/12/01 13:10:14;;;;;;;15.15;10.85;;;6.30;99.90;;;;;;5045248;28;20077;-77
2022/12/01 13:12:54;;;;;;;29.42;18.60;;;6.40;99.90;;;;;;5046155;28;20049;-77